Time;durP1;ratioP1;P1;durP2;ratioP2;P2;SDS_P1;SDS_P2;PMS_P1;PMS_P2;Temp;Humidity;BMP_temperature;BMP_pressure;BME280_temperature;BME280_humidity;BME280_pressure;Samples;Min_cycle;Max_cycle;Signal;HPM_P1;HPM_P2
2022/01/25 00:10:39;;;;;;;0.57;0.57;;;-2.20;99.90;;;;;;5016113;28;20213;-79
2022/01/25 00:26:33;;;;;;;0.80;0.80;;;-2.30;99.90;;;;;;5015696;28;20217;-79
2022/01/25 00:29:09;;;;;;;0.82;0.82;;;-2.30;99.90;;;;;;5013900;28;20256;-78
2022/01/25 00:31:37;;;;;;;0.70;0.70;;;-2.40;99.90;;;;;;5012903;28;20277;-79
2022/01/25 00:34:03;;;;;;;0.70;0.70;;;-2.40;99.90;;;;;;5013940;28;20310;-79
2022/01/25 00:36:30;;;;;;;0.70;0.70;;;-2.30;99.90;;;;;;5013783;28;20674;-79
2022/01/25 00:38:57;;;;;;;0.70;0.70;;;-2.30;99.90;;;;;;5014911;28;20199;-79
2022/01/25 00:41:24;;;;;;;0.70;0.70;;;-2.10;99.90;;;;;;5006827;28;20206;-77
2022/01/25 00:43:50;;;;;;;0.70;0.70;;;-2.10;99.90;;;;;;5014329;28;20199;-78
2022/01/25 00:46:19;;;;;;;0.70;0.70;;;-2.10;99.90;;;;;;5012773;28;20210;-79
2022/01/25 00:48:49;;;;;;;1.70;1.60;;;-2.10;99.90;;;;;;5013349;28;20662;-79
2022/01/25 00:53:59;;;;;;;0.70;0.70;;;-2.10;99.90;;;;;;5014960;28;20261;-79
2022/01/25 00:56:34;;;;;;;0.60;0.60;;;-2.00;99.90;;;;;;5011119;28;20665;-79
2022/01/25 00:59:02;;;;;;;0.60;0.60;;;-2.10;99.90;;;;;;5012250;28;20208;-79
2022/01/25 01:01:29;;;;;;;0.70;0.70;;;-2.20;99.90;;;;;;5012408;28;20218;-79
2022/01/25 01:03:55;;;;;;;0.90;0.90;;;-2.30;99.90;;;;;;5013123;28;20213;-78
2022/01/25 01:06:22;;;;;;;0.75;0.75;;;-2.40;99.90;;;;;;5014304;28;20704;-78
2022/01/25 01:08:49;;;;;;;0.70;0.70;;;-2.40;99.90;;;;;;5013389;28;20199;-79
2022/01/25 01:11:22;;;;;;;0.73;0.73;;;-2.40;99.90;;;;;;5013766;28;20214;-79
2022/01/25 01:36:20;;;;;;;0.80;0.80;;;-1.90;99.90;;;;;;5008225;28;20223;-78
2022/01/25 01:38:10;;;;;;;0.77;0.77;;;-1.70;99.90;;;;;;5002003;28;20693;-79
2022/01/25 01:48:26;;;;;;;0.80;0.80;;;-1.90;99.90;;;;;;5014161;28;20211;-79
2022/01/25 01:50:53;;;;;;;0.70;0.70;;;-1.80;99.90;;;;;;5001803;28;20238;-77
2022/01/25 01:53:19;;;;;;;0.70;0.70;;;-1.90;99.90;;;;;;5007796;28;20622;-76
2022/01/25 01:55:44;;;;;;;1.02;1.02;;;-2.00;99.90;;;;;;5011952;28;20234;-77
2022/01/25 01:58:10;;;;;;;0.80;0.80;;;-2.10;99.90;;;;;;5012314;28;20203;-77
2022/01/25 02:00:42;;;;;;;0.70;0.70;;;-2.10;99.90;;;;;;5010762;28;20746;-74
2022/01/25 02:03:09;;;;;;;0.70;0.70;;;-2.20;99.90;;;;;;5010758;28;20678;-74
2022/01/25 02:05:35;;;;;;;0.70;0.70;;;-2.20;99.90;;;;;;5011351;28;20194;-74
2022/01/25 02:08:01;;;;;;;0.70;0.70;;;-2.30;99.90;;;;;;5010963;28;20585;-73
2022/01/25 02:10:27;;;;;;;0.70;0.70;;;-2.30;99.90;;;;;;5002202;28;20296;-74
2022/01/25 02:12:53;;;;;;;0.70;0.70;;;-2.40;99.90;;;;;;5015160;28;20690;-74
2022/01/25 02:15:20;;;;;;;0.80;0.80;;;-2.40;99.90;;;;;;5013935;28;20202;-74
2022/01/25 02:17:59;;;;;;;0.80;0.80;;;-2.30;99.90;;;;;;5016514;28;20214;-76
2022/01/25 02:23:28;;;;;;;0.70;0.70;;;-2.30;99.90;;;;;;5016452;28;20213;-74
2022/01/25 02:25:57;;;;;;;0.80;0.80;;;-2.40;99.90;;;;;;5011977;28;20214;-73
2022/01/25 02:28:29;;;;;;;0.73;0.73;;;-2.40;99.90;;;;;;5000405;28;20213;-74
2022/01/25 02:30:55;;;;;;;0.70;0.70;;;-2.60;99.90;;;;;;5013930;28;20191;-74
2022/01/25 02:33:22;;;;;;;0.80;0.80;;;-2.70;99.90;;;;;;5016335;28;20194;-75
2022/01/25 02:35:48;;;;;;;0.65;0.65;;;-2.90;99.90;;;;;;5013893;28;20261;-76
2022/01/25 02:38:19;;;;;;;0.70;0.70;;;-3.00;99.90;;;;;;5015371;28;20275;-75
2022/01/25 02:40:44;;;;;;;0.85;0.85;;;-3.20;99.90;;;;;;5014064;28;20664;-74
2022/01/25 02:43:12;;;;;;;0.70;0.70;;;-3.30;99.90;;;;;;5006900;28;20203;-77
2022/01/25 02:45:38;;;;;;;0.70;0.70;;;-3.40;99.90;;;;;;5016286;28;20586;-77
2022/01/25 02:50:49;;;;;;;0.80;0.80;;;-3.40;99.90;;;;;;4998629;28;21954;-75
2022/01/25 02:53:15;;;;;;;0.75;0.75;;;-3.50;99.90;;;;;;5014503;28;20565;-76
2022/01/25 02:55:41;;;;;;;0.80;0.80;;;-3.40;99.90;;;;;;5012450;28;20203;-75
2022/01/25 02:58:08;;;;;;;0.88;0.88;;;-3.50;99.90;;;;;;5014753;28;20211;-74
2022/01/25 03:00:35;;;;;;;1.02;0.98;;;-3.50;99.90;;;;;;5013374;28;20230;-77
2022/01/25 03:03:00;;;;;;;0.80;0.80;;;-3.50;99.90;;;;;;5015160;28;20213;-78
2022/01/25 03:05:27;;;;;;;0.80;0.80;;;-3.40;99.90;;;;;;5012646;28;20293;-78
2022/01/25 03:07:55;;;;;;;0.90;0.90;;;-3.40;99.90;;;;;;5013137;28;20708;-74
2022/01/25 03:10:20;;;;;;;0.80;0.80;;;-3.30;99.90;;;;;;5015071;28;20245;-74
2022/01/25 03:12:51;;;;;;;0.75;0.75;;;-3.50;99.90;;;;;;5013831;28;20226;-74
2022/01/25 03:17:49;;;;;;;0.70;0.70;;;-3.70;99.90;;;;;;5014401;28;20203;-74
2022/01/25 03:20:22;;;;;;;0.70;0.70;;;-3.80;99.90;;;;;;5014148;28;20206;-75
2022/01/25 03:25:22;;;;;;;0.73;0.73;;;-3.80;99.90;;;;;;5014954;28;20712;-75
2022/01/25 03:27:47;;;;;;;0.80;0.80;;;-3.90;99.90;;;;;;5013496;28;20215;-74
2022/01/25 03:30:13;;;;;;;0.70;0.70;;;-3.90;99.90;;;;;;5012363;28;20345;-72
2022/01/25 03:35:30;;;;;;;0.70;0.70;;;-4.00;99.90;;;;;;5013794;28;20214;-74
2022/01/25 03:37:55;;;;;;;0.90;0.90;;;-4.00;99.90;;;;;;5013161;28;20206;-75
2022/01/25 03:40:21;;;;;;;0.80;0.80;;;-4.00;99.90;;;;;;5002556;28;20208;-75
2022/01/25 03:42:48;;;;;;;0.80;0.80;;;-4.00;99.90;;;;;;5012646;28;20214;-74
2022/01/25 03:45:19;;;;;;;1.65;1.55;;;-4.00;99.90;;;;;;5013878;28;20537;-75
2022/01/25 03:47:59;;;;;;;0.80;0.80;;;-3.90;99.90;;;;;;5012975;28;20218;-75
2022/01/25 03:50:26;;;;;;;0.88;0.88;;;-4.00;99.90;;;;;;5014458;28;20249;-74
2022/01/25 03:52:53;;;;;;;0.80;0.80;;;-4.00;99.90;;;;;;5013118;28;20681;-73
2022/01/25 03:55:18;;;;;;;0.90;0.90;;;-4.00;99.90;;;;;;5011888;28;20214;-75
2022/01/25 03:57:45;;;;;;;0.80;0.80;;;-4.00;99.90;;;;;;5012820;28;20611;-75
2022/01/25 04:00:11;;;;;;;0.80;0.80;;;-4.10;99.90;;;;;;5014201;28;20316;-75
2022/01/25 04:02:45;;;;;;;0.80;0.80;;;-4.10;99.90;;;;;;5011650;28;20235;-74
2022/01/25 04:05:20;;;;;;;0.80;0.80;;;-4.20;99.90;;;;;;5012937;28;20211;-74
2022/01/25 04:07:50;;;;;;;0.90;0.90;;;-4.20;99.90;;;;;;5012645;28;20264;-75
2022/01/25 04:10:17;;;;;;;0.85;0.85;;;-4.30;99.90;;;;;;5014316;28;20199;-75
2022/01/25 04:12:44;;;;;;;7.22;3.55;;;-4.30;99.90;;;;;;5012719;28;20543;-75
2022/01/25 04:15:10;;;;;;;0.80;0.80;;;-4.30;99.90;;;;;;5011423;28;20686;-75
2022/01/25 04:17:36;;;;;;;0.80;0.80;;;-4.10;99.90;;;;;;5013701;28;20237;-75
2022/01/25 04:20:15;;;;;;;0.80;0.80;;;-4.00;99.90;;;;;;5013876;28;20265;-74
2022/01/25 04:25:25;;;;;;;0.80;0.80;;;-4.00;99.90;;;;;;5012676;28;20241;-74
2022/01/25 04:27:51;;;;;;;2.50;1.42;;;-4.00;99.90;;;;;;5012257;28;20207;-74
2022/01/25 04:30:17;;;;;;;0.80;0.80;;;-4.10;99.90;;;;;;5005706;28;20632;-75
2022/01/25 04:32:47;;;;;;;0.75;0.75;;;-4.20;99.90;;;;;;5000169;28;20305;-75
2022/01/25 04:49:12;;;;;;;0.73;0.73;;;-4.20;99.90;;;;;;5013473;28;20249;-75
2022/01/25 04:56:38;;;;;;;0.70;0.70;;;-4.00;99.90;;;;;;5006387;28;20211;-75
2022/01/25 04:59:15;;;;;;;0.80;0.80;;;-3.90;99.90;;;;;;5011044;28;20682;-74
2022/01/25 05:01:42;;;;;;;0.82;0.82;;;-3.70;99.90;;;;;;5011674;28;20361;-75
2022/01/25 05:04:17;;;;;;;0.80;0.80;;;-3.60;99.90;;;;;;5014082;28;20217;-74
2022/01/25 05:06:45;;;;;;;0.82;0.82;;;-3.60;99.90;;;;;;5010927;28;20210;-75
2022/01/25 05:09:13;;;;;;;0.80;0.80;;;-3.60;99.90;;;;;;5012222;28;20199;-75
2022/01/25 05:11:45;;;;;;;0.80;0.80;;;-3.60;99.90;;;;;;5010814;28;20210;-76
2022/01/25 05:14:21;;;;;;;0.70;0.70;;;-3.50;99.90;;;;;;5013729;28;20191;-74
2022/01/25 05:16:53;;;;;;;0.70;0.70;;;-3.40;99.90;;;;;;5000260;28;20214;-75
2022/01/25 05:22:05;;;;;;;0.70;0.70;;;-3.10;99.90;;;;;;5013526;28;20296;-74
2022/01/25 05:24:37;;;;;;;0.80;0.80;;;-2.90;99.90;;;;;;5012867;28;20214;-75
2022/01/25 05:27:04;;;;;;;0.70;0.70;;;-2.90;99.90;;;;;;5011959;28;20694;-75
2022/01/25 05:29:29;;;;;;;0.90;0.90;;;-2.90;99.90;;;;;;5010959;28;20198;-74
2022/01/25 05:31:56;;;;;;;0.80;0.80;;;-3.00;99.90;;;;;;5014188;28;20658;-75
2022/01/25 05:34:22;;;;;;;0.90;0.90;;;-3.10;99.90;;;;;;5011327;28;20199;-75
2022/01/25 05:36:48;;;;;;;0.90;0.90;;;-3.20;99.90;;;;;;5011644;28;20574;-74
2022/01/25 05:39:19;;;;;;;0.70;0.70;;;-3.40;99.90;;;;;;5013765;28;20671;-76
2022/01/25 05:41:53;;;;;;;0.80;0.80;;;-3.50;99.90;;;;;;5014811;28;20350;-75
2022/01/25 05:46:52;;;;;;;0.80;0.80;;;-3.70;99.90;;;;;;5016560;28;20214;-75
2022/01/25 05:49:18;;;;;;;0.80;0.80;;;-3.80;99.90;;;;;;5014600;28;20716;-77
2022/01/25 05:51:44;;;;;;;0.80;0.80;;;-3.90;99.90;;;;;;5011625;28;20246;-76
2022/01/25 05:54:10;;;;;;;0.80;0.80;;;-3.90;99.90;;;;;;5002693;28;20241;-75
2022/01/25 05:56:36;;;;;;;0.80;0.80;;;-3.90;99.90;;;;;;5015152;28;20226;-75
2022/01/25 05:59:01;;;;;;;0.77;0.77;;;-3.90;99.90;;;;;;5015414;28;20257;-78
2022/01/25 06:01:27;;;;;;;0.80;0.80;;;-4.00;99.90;;;;;;5014330;28;20204;-77
2022/01/25 06:03:54;;;;;;;0.73;0.73;;;-4.10;99.90;;;;;;5017064;28;20202;-77
2022/01/25 06:06:20;;;;;;;0.80;0.80;;;-4.10;99.90;;;;;;5015565;28;20202;-75
2022/01/25 06:08:46;;;;;;;0.73;0.73;;;-4.10;99.90;;;;;;5000301;28;20253;-74
2022/01/25 06:11:11;;;;;;;0.80;0.80;;;-4.10;99.90;;;;;;5031765;28;20202;-76
2022/01/25 06:13:41;;;;;;;0.80;0.80;;;-4.10;99.90;;;;;;5015970;28;20289;-78
2022/01/25 06:16:07;;;;;;;0.90;0.90;;;-4.20;99.90;;;;;;5017775;28;20622;-77
2022/01/25 06:18:33;;;;;;;0.80;0.80;;;-4.20;99.90;;;;;;5019133;28;20199;-77
2022/01/25 06:20:58;;;;;;;0.80;0.80;;;-4.30;99.90;;;;;;5017955;28;20270;-78
2022/01/25 06:23:24;;;;;;;0.90;0.90;;;-4.30;99.90;;;;;;5017286;28;20207;-77
2022/01/25 06:25:50;;;;;;;1.23;1.13;;;-4.30;99.90;;;;;;5016617;28;20207;-77
2022/01/25 06:28:16;;;;;;;0.90;0.90;;;-4.40;99.90;;;;;;5017411;28;20206;-77
2022/01/25 06:30:42;;;;;;;2.22;1.95;;;-4.40;99.90;;;;;;5018155;28;20270;-77
2022/01/25 06:33:08;;;;;;;0.80;0.80;;;-4.40;99.90;;;;;;5015848;28;20222;-77
2022/01/25 06:35:34;;;;;;;0.80;0.80;;;-4.30;99.90;;;;;;5016618;28;20195;-77
2022/01/25 06:38:00;;;;;;;1.15;1.15;;;-4.40;99.90;;;;;;5018243;28;20191;-75
2022/01/25 06:40:27;;;;;;;0.95;0.95;;;-4.40;99.90;;;;;;5016536;28;20222;-77
2022/01/25 06:42:53;;;;;;;2.25;2.08;;;-4.40;99.90;;;;;;5013793;28;20732;-76
2022/01/25 06:45:22;;;;;;;0.80;0.80;;;-4.50;99.90;;;;;;5003890;28;20199;-76
2022/01/25 06:47:50;;;;;;;0.90;0.90;;;-4.50;99.90;;;;;;4998966;28;20297;-75
2022/01/25 06:50:17;;;;;;;0.90;0.90;;;-4.60;99.90;;;;;;5014097;28;20223;-75
2022/01/25 06:52:44;;;;;;;0.90;0.90;;;-4.60;99.90;;;;;;4995503;28;20257;-74
2022/01/25 06:55:16;;;;;;;0.90;0.90;;;-4.60;99.90;;;;;;5016695;28;20195;-74
2022/01/25 06:57:43;;;;;;;0.80;0.80;;;-4.60;99.90;;;;;;5012479;28;20203;-76
2022/01/25 07:00:12;;;;;;;0.85;0.85;;;-4.60;99.90;;;;;;5013862;28;20804;-79
2022/01/25 07:02:38;;;;;;;0.80;0.80;;;-4.70;99.90;;;;;;5012349;28;20725;-75
2022/01/25 07:05:05;;;;;;;0.90;0.90;;;-4.70;99.90;;;;;;5013585;28;20334;-75
2022/01/25 07:07:30;;;;;;;0.90;0.90;;;-4.70;99.90;;;;;;5013486;28;20257;-75
2022/01/25 07:09:57;;;;;;;0.90;0.90;;;-4.80;99.90;;;;;;5015004;28;20734;-75
2022/01/25 07:12:23;;;;;;;0.88;0.88;;;-4.80;99.90;;;;;;5014949;28;20227;-75
2022/01/25 07:14:49;;;;;;;0.82;0.82;;;-4.70;99.90;;;;;;5016602;28;20218;-76
2022/01/25 07:17:14;;;;;;;0.80;0.80;;;-4.70;99.90;;;;;;5018754;28;20203;-75
2022/01/25 07:19:40;;;;;;;0.80;0.80;;;-4.70;99.90;;;;;;5012735;28;20559;-76
2022/01/25 07:22:06;;;;;;;0.93;0.93;;;-4.70;99.90;;;;;;5012761;28;20295;-74
2022/01/25 07:24:32;;;;;;;0.80;0.80;;;-4.70;99.90;;;;;;5006431;28;20204;-75
2022/01/25 07:26:58;;;;;;;0.80;0.80;;;-4.70;99.90;;;;;;5002360;28;20214;-75
2022/01/25 07:29:24;;;;;;;1.27;1.17;;;-4.70;99.90;;;;;;5013214;28;20225;-75
2022/01/25 07:31:50;;;;;;;0.80;0.80;;;-4.60;99.90;;;;;;5012627;28;20688;-74
2022/01/25 07:34:15;;;;;;;0.80;0.80;;;-4.60;99.90;;;;;;5015397;28;20282;-77
2022/01/25 07:36:42;;;;;;;1.42;1.02;;;-4.60;99.90;;;;;;5013801;28;20194;-75
2022/01/25 07:39:09;;;;;;;1.02;1.02;;;-4.60;99.90;;;;;;5013386;28;20194;-76
2022/01/25 07:41:39;;;;;;;0.90;0.90;;;-4.60;99.90;;;;;;5012643;28;20195;-75
2022/01/25 07:44:06;;;;;;;0.80;0.80;;;-4.60;99.90;;;;;;4996582;28;20218;-76
2022/01/25 07:46:32;;;;;;;4.05;2.60;;;-4.60;99.90;;;;;;5014137;28;20238;-74
2022/01/25 07:48:58;;;;;;;0.80;0.80;;;-4.60;99.90;;;;;;4996061;28;20243;-76
2022/01/25 07:51:28;;;;;;;0.82;0.82;;;-4.60;99.90;;;;;;5015142;28;20207;-75
2022/01/25 07:53:55;;;;;;;1.00;1.00;;;-4.60;99.90;;;;;;5013334;28;20206;-75
2022/01/25 07:56:21;;;;;;;2.08;1.95;;;-4.60;99.90;;;;;;5013552;28;20242;-75
2022/01/25 07:58:47;;;;;;;0.82;0.82;;;-4.60;99.90;;;;;;5012925;28;20211;-74
2022/01/25 08:01:14;;;;;;;0.80;0.80;;;-4.60;99.90;;;;;;5014637;28;20547;-76
2022/01/25 08:03:40;;;;;;;0.80;0.80;;;-4.60;99.90;;;;;;5013303;28;20300;-77
2022/01/25 08:06:07;;;;;;;0.80;0.80;;;-4.50;99.90;;;;;;5001418;28;20239;-76
2022/01/25 08:08:33;;;;;;;0.80;0.80;;;-4.60;99.90;;;;;;5009103;28;20687;-75
2022/01/25 08:11:04;;;;;;;0.80;0.80;;;-4.50;99.90;;;;;;5011588;28;20219;-75
2022/01/25 08:13:30;;;;;;;0.75;0.75;;;-4.50;99.90;;;;;;5019115;28;20202;-75
2022/01/25 08:15:56;;;;;;;0.88;0.88;;;-4.40;99.90;;;;;;5013511;28;20214;-77
2022/01/25 08:18:22;;;;;;;1.00;1.00;;;-4.30;99.90;;;;;;4996945;28;20729;-75
2022/01/25 08:20:48;;;;;;;0.98;0.98;;;-4.20;99.90;;;;;;5013565;28;20627;-76
2022/01/25 08:23:14;;;;;;;0.90;0.90;;;-4.20;99.90;;;;;;5011694;28;20247;-75
2022/01/25 08:25:40;;;;;;;0.80;0.80;;;-4.00;99.90;;;;;;5012560;28;20261;-75
2022/01/25 08:28:06;;;;;;;0.80;0.80;;;-4.00;99.90;;;;;;5013050;28;20214;-75
2022/01/25 08:30:31;;;;;;;0.90;0.90;;;-4.00;99.90;;;;;;5005779;28;20200;-76
2022/01/25 08:32:57;;;;;;;0.77;0.77;;;-3.90;99.90;;;;;;4999999;28;20280;-75
2022/01/25 08:35:23;;;;;;;0.70;0.70;;;-3.80;99.90;;;;;;5011014;28;20207;-75
2022/01/25 08:37:49;;;;;;;0.90;0.90;;;-3.80;99.90;;;;;;5013563;28;20211;-75
2022/01/25 08:40:15;;;;;;;1.33;1.23;;;-3.80;99.90;;;;;;5015174;28;20217;-75
2022/01/25 08:42:41;;;;;;;0.80;0.80;;;-3.70;99.90;;;;;;5011650;28;20286;-76
2022/01/25 08:45:08;;;;;;;0.73;0.73;;;-3.70;99.90;;;;;;5011728;28;20329;-76
2022/01/25 08:47:34;;;;;;;0.85;0.85;;;-3.60;99.90;;;;;;5010110;28;20207;-75
2022/01/25 08:50:03;;;;;;;2.63;2.42;;;-3.50;99.90;;;;;;5011805;28;20600;-75
2022/01/25 08:52:29;;;;;;;0.82;0.82;;;-3.50;99.90;;;;;;5012111;28;20210;-74
2022/01/25 08:54:55;;;;;;;0.80;0.80;;;-3.40;99.90;;;;;;5010875;28;20280;-76
2022/01/25 08:57:20;;;;;;;1.05;1.05;;;-3.30;99.90;;;;;;5010204;28;20203;-77
2022/01/25 08:59:46;;;;;;;0.90;0.90;;;-3.20;99.90;;;;;;5011785;28;20199;-75
2022/01/25 09:02:12;;;;;;;0.80;0.80;;;-3.20;99.90;;;;;;5012030;28;20270;-75
2022/01/25 09:04:38;;;;;;;0.80;0.80;;;-3.20;99.90;;;;;;5010005;28;20226;-77
2022/01/25 09:07:03;;;;;;;0.80;0.80;;;-3.10;99.90;;;;;;5011504;28;20595;-76
2022/01/25 09:09:29;;;;;;;1.45;1.35;;;-3.00;99.90;;;;;;5027468;28;20276;-75
2022/01/25 09:11:56;;;;;;;5.68;2.35;;;-3.00;99.90;;;;;;5010659;28;20215;-74
2022/01/25 09:14:23;;;;;;;0.95;0.95;;;-2.90;99.90;;;;;;5012119;28;20202;-77
2022/01/25 09:16:48;;;;;;;1.13;1.05;;;-2.70;99.90;;;;;;5010443;28;20211;-76
2022/01/25 09:19:15;;;;;;;1.00;1.00;;;-2.60;99.90;;;;;;5009938;28;20214;-76
2022/01/25 09:21:40;;;;;;;1.00;1.00;;;-2.50;99.90;;;;;;5004640;28;20292;-76
2022/01/25 09:24:07;;;;;;;2.15;1.77;;;-2.40;99.90;;;;;;5012200;28;20207;-76
2022/01/25 09:26:33;;;;;;;0.80;0.80;;;-2.40;99.90;;;;;;5012399;28;20209;-76
2022/01/25 09:28:59;;;;;;;0.90;0.90;;;-2.30;99.90;;;;;;5010950;28;20203;-75
2022/01/25 09:31:26;;;;;;;0.85;0.82;;;-2.30;99.90;;;;;;5010219;28;20758;-75
2022/01/25 09:33:52;;;;;;;0.70;0.70;;;-2.30;99.90;;;;;;5011583;28;20577;-75
2022/01/25 09:36:18;;;;;;;0.80;0.80;;;-2.20;99.90;;;;;;5011212;28;20213;-76
2022/01/25 09:38:44;;;;;;;0.93;0.93;;;-2.20;99.90;;;;;;5011556;28;20571;-75
2022/01/25 09:41:10;;;;;;;0.88;0.88;;;-2.10;99.90;;;;;;5011090;28;20625;-76
2022/01/25 09:43:35;;;;;;;0.70;0.70;;;-2.00;99.90;;;;;;5004250;28;20254;-75
2022/01/25 09:46:02;;;;;;;1.00;0.95;;;-1.90;99.90;;;;;;5004335;28;20198;-76
2022/01/25 09:48:28;;;;;;;0.60;0.60;;;-1.90;99.90;;;;;;5011588;28;20206;-77
2022/01/25 09:50:56;;;;;;;0.70;0.70;;;-1.90;99.90;;;;;;5010641;28;20683;-74
2022/01/25 09:53:24;;;;;;;0.70;0.70;;;-1.70;99.90;;;;;;5010733;28;20206;-75
2022/01/25 09:55:50;;;;;;;0.60;0.60;;;-1.50;99.90;;;;;;5010913;28;20218;-76
2022/01/25 09:58:15;;;;;;;0.80;0.80;;;-1.40;99.90;;;;;;5014416;28;20202;-78
2022/01/25 10:00:45;;;;;;;0.68;0.68;;;-1.20;99.90;;;;;;5011558;28;20203;-76
2022/01/25 10:03:20;;;;;;;0.77;0.77;;;-1.10;99.90;;;;;;5011442;28;20230;-77
2022/01/25 10:05:48;;;;;;;0.57;0.57;;;-1.00;99.90;;;;;;5013279;28;20210;-79
2022/01/25 10:08:21;;;;;;;0.70;0.70;;;-0.80;99.90;;;;;;5011642;28;20298;-76
2022/01/25 10:10:58;;;;;;;0.70;0.70;;;-0.70;99.90;;;;;;5010611;28;20199;-76
2022/01/25 10:13:33;;;;;;;0.45;0.45;;;-0.50;99.90;;;;;;5011206;28;20198;-76
2022/01/25 10:16:05;;;;;;;0.60;0.60;;;-0.40;99.90;;;;;;5011216;28;20194;-76
2022/01/25 10:18:52;;;;;;;0.90;0.90;;;-0.20;99.90;;;;;;5008845;28;20202;-76
2022/01/25 10:21:35;;;;;;;0.88;0.88;;;0.00;99.90;;;;;;5000689;28;20207;-77
2022/01/25 10:24:10;;;;;;;0.50;0.50;;;0.10;99.90;;;;;;5012856;28;20681;-75
2022/01/25 10:26:47;;;;;;;0.70;0.70;;;0.20;99.90;;;;;;5012344;28;20210;-76
2022/01/25 10:29:25;;;;;;;0.60;0.60;;;0.30;99.90;;;;;;5009491;28;20741;-76
2022/01/25 10:31:56;;;;;;;0.70;0.70;;;0.40;99.90;;;;;;5006283;28;20295;-75
2022/01/25 10:34:32;;;;;;;0.60;0.60;;;0.50;99.90;;;;;;5016945;28;20235;-76
2022/01/25 10:37:00;;;;;;;0.70;0.70;;;0.60;99.90;;;;;;5013776;28;20221;-77
2022/01/25 10:39:34;;;;;;;0.85;0.85;;;0.60;99.90;;;;;;5015307;28;20210;-77
2022/01/25 10:42:09;;;;;;;0.60;0.60;;;0.60;99.90;;;;;;5017371;28;20208;-77
2022/01/25 10:44:56;;;;;;;0.80;0.80;;;0.50;99.90;;;;;;5014967;28;20206;-77
2022/01/25 10:47:45;;;;;;;0.70;0.70;;;0.40;99.90;;;;;;5015379;28;20198;-78
2022/01/25 10:50:21;;;;;;;0.70;0.70;;;0.40;99.90;;;;;;5016337;28;20222;-77
2022/01/25 10:53:02;;;;;;;1.20;1.10;;;0.50;99.90;;;;;;5004917;28;20575;-77
2022/01/25 10:55:38;;;;;;;0.80;0.80;;;0.60;99.90;;;;;;5009034;28;20751;-78
2022/01/25 10:58:04;;;;;;;0.68;0.68;;;0.70;99.90;;;;;;5010739;28;20353;-77
2022/01/25 11:00:33;;;;;;;1.58;1.48;;;0.80;99.90;;;;;;5015879;28;20198;-79
2022/01/25 11:02:59;;;;;;;1.65;1.38;;;0.90;99.90;;;;;;5017026;28;20722;-76
2022/01/25 11:05:25;;;;;;;0.60;0.60;;;0.90;99.90;;;;;;5014522;28;20203;-76
2022/01/25 11:07:51;;;;;;;0.60;0.60;;;0.70;99.90;;;;;;5014500;28;20211;-77
2022/01/25 11:10:20;;;;;;;0.57;0.57;;;0.70;99.90;;;;;;5008068;28;20274;-78
2022/01/25 11:13:02;;;;;;;0.68;0.68;;;0.80;99.90;;;;;;5006269;28;20210;-76
2022/01/25 11:15:28;;;;;;;0.60;0.60;;;0.80;99.90;;;;;;5015783;28;20206;-76
2022/01/25 11:17:54;;;;;;;0.88;0.88;;;0.80;99.90;;;;;;5014606;28;20265;-76
2022/01/25 11:20:20;;;;;;;0.50;0.50;;;0.80;99.90;;;;;;5014808;28;20302;-78
2022/01/25 11:22:47;;;;;;;0.55;0.55;;;0.80;99.90;;;;;;5016522;28;20211;-79
2022/01/25 11:25:16;;;;;;;1.08;0.98;;;0.90;99.90;;;;;;5013071;28;20203;-77
2022/01/25 11:27:43;;;;;;;0.82;0.82;;;0.90;99.90;;;;;;5014795;28;21088;-78
2022/01/25 11:30:16;;;;;;;0.60;0.60;;;1.00;99.90;;;;;;5017911;28;20207;-77
2022/01/25 11:32:45;;;;;;;0.98;0.88;;;1.00;99.90;;;;;;5016173;28;20222;-78
2022/01/25 11:35:14;;;;;;;0.65;0.65;;;0.90;99.90;;;;;;5002181;28;20198;-78
2022/01/25 11:37:44;;;;;;;0.98;0.98;;;1.00;99.90;;;;;;5016566;28;20207;-78
2022/01/25 11:40:31;;;;;;;0.70;0.70;;;1.10;99.90;;;;;;5016207;28;20199;-77
2022/01/25 11:42:59;;;;;;;0.70;0.70;;;1.20;99.90;;;;;;5003191;28;20674;-80
2022/01/25 11:45:28;;;;;;;0.80;0.80;;;1.20;99.90;;;;;;5019548;28;20260;-78
2022/01/25 11:47:55;;;;;;;0.68;0.68;;;1.30;99.90;;;;;;5000078;28;20274;-79
2022/01/25 11:50:26;;;;;;;0.90;0.90;;;1.10;99.90;;;;;;5015811;28;20223;-80
2022/01/25 11:52:54;;;;;;;0.60;0.60;;;1.30;99.90;;;;;;4999558;28;20620;-78
2022/01/25 11:55:30;;;;;;;0.63;0.63;;;1.30;99.90;;;;;;5016973;28;20238;-78
2022/01/25 11:58:06;;;;;;;0.80;0.77;;;1.30;99.90;;;;;;5030514;28;20321;-78
2022/01/25 12:00:45;;;;;;;0.60;0.60;;;1.50;99.90;;;;;;5015663;28;20273;-80
2022/01/25 12:03:26;;;;;;;0.70;0.70;;;1.50;99.90;;;;;;4998226;28;20219;-78
2022/01/25 12:06:19;;;;;;;0.88;0.85;;;1.50;99.90;;;;;;4996473;28;20261;-78
2022/01/25 12:11:59;;;;;;;0.60;0.60;;;1.40;99.90;;;;;;5001786;28;20610;-76
2022/01/25 12:14:36;;;;;;;0.70;0.70;;;1.30;99.90;;;;;;5011621;28;20195;-76
2022/01/25 12:17:02;;;;;;;0.70;0.70;;;1.40;99.90;;;;;;5012699;28;20252;-77
2022/01/25 12:19:33;;;;;;;0.60;0.60;;;1.30;99.90;;;;;;5012242;28;20641;-76
2022/01/25 12:22:01;;;;;;;0.80;0.80;;;1.40;99.90;;;;;;5014903;28;20706;-76
2022/01/25 12:25:03;;;;;;;0.50;0.50;;;1.40;99.90;;;;;;5014811;28;20194;-76
2022/01/25 12:27:54;;;;;;;1.05;0.98;;;1.20;99.90;;;;;;5012226;28;20203;-77
2022/01/25 12:30:32;;;;;;;0.60;0.60;;;1.10;99.90;;;;;;5012721;28;20209;-80
2022/01/25 12:33:20;;;;;;;0.60;0.60;;;1.10;99.90;;;;;;5017457;28;20213;-78
2022/01/25 12:35:50;;;;;;;0.70;0.70;;;1.10;99.90;;;;;;5013342;28;20207;-77
2022/01/25 12:38:22;;;;;;;0.60;0.60;;;1.10;99.90;;;;;;5014024;28;20705;-78
2022/01/25 12:41:16;;;;;;;1.02;1.02;;;1.10;99.90;;;;;;5014133;28;20364;-79
2022/01/25 12:43:58;;;;;;;0.60;0.60;;;1.10;99.90;;;;;;5012692;28;20213;-80
2022/01/25 12:46:40;;;;;;;0.63;0.63;;;1.20;99.90;;;;;;5014582;28;20294;-78
2022/01/25 12:49:10;;;;;;;0.82;0.82;;;1.40;99.90;;;;;;4999457;28;20226;-77
2022/01/25 12:51:38;;;;;;;0.60;0.60;;;1.40;99.90;;;;;;5013610;28;20230;-78
2022/01/25 12:54:06;;;;;;;0.68;0.68;;;1.30;99.90;;;;;;5014926;28;20215;-81
2022/01/25 12:56:35;;;;;;;0.70;0.70;;;1.40;99.90;;;;;;5030417;28;20264;-81
2022/01/25 12:59:05;;;;;;;0.90;0.90;;;1.40;99.90;;;;;;5014723;28;20230;-78
2022/01/25 13:01:32;;;;;;;0.60;0.60;;;1.30;99.90;;;;;;5012294;28;20725;-79
2022/01/25 13:04:00;;;;;;;0.90;0.88;;;1.30;99.90;;;;;;5012664;28;20207;-77
2022/01/25 13:06:29;;;;;;;0.70;0.70;;;1.30;99.90;;;;;;5010812;28;20209;-78
2022/01/25 13:09:17;;;;;;;0.55;0.55;;;1.30;99.90;;;;;;5011750;28;20245;-78
2022/01/25 13:17:21;;;;;;;3.05;1.40;;;1.30;99.90;;;;;;5013811;28;20628;-77
2022/01/25 13:19:52;;;;;;;0.80;0.80;;;1.40;99.90;;;;;;5011050;28;20677;-79
2022/01/25 13:22:30;;;;;;;0.63;0.63;;;1.40;99.90;;;;;;5028071;28;20237;-77
2022/01/25 13:25:12;;;;;;;0.57;0.57;;;1.40;99.90;;;;;;5011819;28;20207;-77
2022/01/25 13:27:51;;;;;;;0.73;0.73;;;1.40;99.90;;;;;;5012942;28;20808;-81
2022/01/25 13:30:41;;;;;;;1.00;1.00;;;1.40;99.90;;;;;;5013319;28;20206;-78
2022/01/25 13:33:09;;;;;;;0.60;0.60;;;1.40;99.90;;;;;;4999279;28;20195;-77
2022/01/25 13:35:39;;;;;;;0.77;0.77;;;1.30;99.90;;;;;;5012168;28;20685;-78
2022/01/25 13:38:15;;;;;;;0.70;0.70;;;1.20;99.90;;;;;;5012012;28;20214;-77
2022/01/25 13:41:18;;;;;;;0.70;0.70;;;1.20;99.90;;;;;;5012406;28;20285;-77
2022/01/25 13:46:28;;;;;;;0.60;0.60;;;1.00;99.90;;;;;;5013848;28;20194;-77
2022/01/25 13:48:57;;;;;;;0.60;0.60;;;0.90;99.90;;;;;;5011156;28;20306;-77
2022/01/25 13:51:26;;;;;;;0.80;0.80;;;0.70;99.90;;;;;;5011680;28;20218;-76
2022/01/25 13:53:56;;;;;;;0.60;0.60;;;0.60;99.90;;;;;;5013183;28;20221;-74
2022/01/25 13:56:25;;;;;;;0.88;0.88;;;0.40;99.90;;;;;;5006240;28;20204;-77
2022/01/25 13:58:52;;;;;;;0.65;0.65;;;0.40;99.90;;;;;;4999055;28;20541;-75
2022/01/25 14:01:20;;;;;;;0.68;0.68;;;0.30;99.90;;;;;;5012679;28;20210;-78
2022/01/25 14:03:56;;;;;;;0.80;0.80;;;0.20;99.90;;;;;;5017894;28;20732;-78
2022/01/25 14:06:43;;;;;;;0.70;0.70;;;0.10;99.90;;;;;;5016895;28;20225;-78
2022/01/25 14:09:19;;;;;;;1.52;1.42;;;0.00;99.90;;;;;;5015729;28;20230;-78
2022/01/25 14:25:30;;;;;;;0.70;0.70;;;-0.70;99.90;;;;;;5014775;28;20203;-76
2022/01/25 14:28:02;;;;;;;0.70;0.70;;;-0.80;99.90;;;;;;5014603;28;20255;-76
2022/01/25 14:30:33;;;;;;;0.70;0.70;;;-0.80;99.90;;;;;;5014388;28;20696;-77
2022/01/25 14:33:02;;;;;;;0.90;0.90;;;-1.00;99.90;;;;;;5012945;28;20215;-78
2022/01/25 14:35:31;;;;;;;0.60;0.60;;;-1.10;99.90;;;;;;5015997;28;20755;-77
2022/01/25 14:37:59;;;;;;;0.70;0.70;;;-1.20;99.90;;;;;;5015877;28;20293;-77
2022/01/25 14:40:25;;;;;;;0.60;0.60;;;-1.30;99.90;;;;;;5015911;28;20689;-78
2022/01/25 14:42:53;;;;;;;0.70;0.70;;;-1.40;99.90;;;;;;5015478;28;20253;-77
2022/01/25 14:45:23;;;;;;;0.70;0.70;;;-1.40;99.90;;;;;;5012925;28;20202;-78
2022/01/25 14:47:51;;;;;;;0.70;0.70;;;-1.50;99.90;;;;;;5012196;28;20207;-78
2022/01/25 14:50:21;;;;;;;0.60;0.60;;;-1.50;99.90;;;;;;5012770;28;20253;-77
2022/01/25 14:53:09;;;;;;;0.80;0.80;;;-1.60;99.90;;;;;;5015346;28;20203;-76
2022/01/25 14:55:38;;;;;;;0.60;0.60;;;-1.60;99.90;;;;;;5012619;28;20542;-76
2022/01/25 15:00:54;;;;;;;1.08;1.08;;;-1.70;99.90;;;;;;5013117;28;20743;-77
2022/01/25 15:03:21;;;;;;;0.73;0.73;;;-1.80;99.90;;;;;;5014639;28;20233;-75
2022/01/25 15:05:48;;;;;;;0.63;0.63;;;-1.80;99.90;;;;;;5000634;28;20211;-76